National Weather Service United States Department of Commerce

Airport Observations and Forecasts (from NWS CLE)

Cleveland Hopkins International Airport

 

FAA details


280
FTUS41 KCLE 240534
TAFCLE
TAF
KCLE 240534Z 2406/2512 29004KT P6SM BKN070
FM241400 36008KT P6SM BKN050
FM250200 36004KT P6SM SCT050=

24 hours of observations

7-day forecast

Hourly - Tabular forecast  Hourly - Graph forecast

Terminal Information Board

Toledo Express Airport

 

FAA details


281
FTUS41 KCLE 240534
TAFTOL
TAF
KTOL 240534Z 2406/2506 30005KT P6SM FEW250
FM241500 36005KT P6SM BKN050
FM242300 VRB03KT P6SM FEW050=

24 hours of observations

7-day forecast

Hourly - Tabular forecast  Hourly - Graph forecast

Terminal Information Board

Findlay Airport

 

FAA details


282
FTUS41 KCLE 240534
TAFFDY
TAF
KFDY 240534Z 2406/2506 29005KT P6SM FEW250
FM241500 36005KT P6SM BKN050
FM242300 VRB03KT P6SM FEW050=

24 hours of observations

7-day forecast

Hourly - Tabular forecast   Hourly - Graph forecast

Terminal Information Board

Mansfield Lahm Airport

 

FAA details


283
FTUS41 KCLE 240534
TAFMFD
TAF
KMFD 240534Z 2406/2506 28004KT P6SM FEW040
FM241400 35006KT P6SM BKN040
FM250100 33004KT P6SM FEW040=

24 hours of observations

7-day forecast

Hourly - Tabular forecast   Hourly - Graph forecast

Terminal Information Board

Akron-Canton Airport

 

FAA details


517
FTUS41 KCLE 240534
TAFCAK
TAF
KCAK 240534Z 2406/2506 VRB03KT P6SM SCT070
TEMPO 2406/2410 BKN070
FM241400 36007KT P6SM BKN050
FM250200 35004KT P6SM SCT050=

24 hours of observations

7-day forecast

Hourly - Tabular forecast   Hourly - Graph forecast

Terminal Information Board

Youngstown-Warren Regional Airport

 

FAA details


284
FTUS41 KCLE 240534
TAFYNG
TAF
KYNG 240534Z 2406/2506 VRB03KT P6SM SCT070
TEMPO 2406/2410 BKN070
FM241400 36007KT P6SM BKN040
FM250200 35004KT P6SM SCT040=

24 hours of observations

7-day forecast

Hourly - Tabular forecast   Hourly - Graph forecast

Terminal Information Board

Erie International Airport

 

FAA details


279
FTUS41 KCLE 240534
TAFERI
TAF
KERI 240534Z 2406/2506 VRB03KT P6SM BKN070
FM241400 34006KT P6SM BKN050
FM241800 36008KT P6SM VCSH OVC035
FM250200 01005KT P6SM BKN070=

24 hours of observations

7-day forecast

Hourly - Tabular Forecast  Hourly - Graph forecast

Terminal Information Board

The National Weather Service is Cleveland is responsible for the Terminal Areodome Forecasts for seven area airports in northern Ohio and northwest Pennsylvania.  Routine issuance times are by 00Z, 06Z, 12Z, and 18Z with amendments, as needed.

Latest Surface Analysis

Additional Current Conditions

Satellite

Radar
 
 

 

Center Weather Service Unit, Oberlin/ZOB

CWA/MIS    

 

The National Weather Service Center Weather Service Unit in Oberlin is responsible for the airspace above northern Ohio and northwest Pennsylvania and ajoining areas.

 

Aviaiton Weather Center National, AWC

AIRMETS & SIGMETS

 

 

Climatology